Time;durP1;ratioP1;P1;durP2;ratioP2;P2;SDS_P1;SDS_P2;PMS_P1;PMS_P2;Temp;Humidity;BMP_temperature;BMP_pressure;BME280_temperature;BME280_humidity;BME280_pressure;Samples;Min_cycle;Max_cycle;Signal;HPM_P1;HPM_P2
2022/04/05 00:00:59;;;;;;;;;;;;;;;20.68;27.30;95127.28;10495585;28;1965;-55
2022/04/05 00:06:00;;;;;;;;;;;;;;;20.70;27.33;95105.91;10508691;28;1805;-51
2022/04/05 00:11:00;;;;;;;;;;;;;;;20.71;27.17;95108.25;10508871;28;1946;-53
2022/04/05 00:16:01;;;;;;;;;;;;;;;20.71;26.97;95104.88;10502803;28;2399;-51
2022/04/05 00:21:01;;;;;;;;;;;;;;;20.68;27.11;95095.69;10507973;28;1917;-56
2022/04/05 00:26:02;;;;;;;;;;;;;;;20.68;27.21;95093.03;10510989;28;2212;-52
2022/04/05 00:31:03;;;;;;;;;;;;;;;20.68;26.97;95079.88;10511291;28;1813;-56
2022/04/05 00:36:03;;;;;;;;;;;;;;;20.66;27.05;95076.75;10505676;28;1800;-51
2022/04/05 00:41:03;;;;;;;;;;;;;;;20.69;27.10;95067.50;10508389;28;1914;-50
2022/04/05 00:46:04;;;;;;;;;;;;;;;20.67;26.75;95059.88;10489321;28;1865;-51
2022/04/05 00:51:04;;;;;;;;;;;;;;;20.67;27.01;95057.22;10492049;28;1817;-54
2022/04/05 00:56:05;;;;;;;;;;;;;;;20.66;27.11;95049.63;10489437;28;1771;-52
2022/04/05 01:01:06;;;;;;;;;;;;;;;20.65;26.48;95033.03;10496582;28;1973;-54
2022/04/05 01:06:06;;;;;;;;;;;;;;;20.65;26.98;95043.56;10491932;28;1781;-49
2022/04/05 01:11:07;;;;;;;;;;;;;;;20.66;26.63;95023.31;10486789;28;1860;-53
2022/04/05 01:16:08;;;;;;;;;;;;;;;20.66;26.85;95026.72;10490258;28;1728;-56
2022/04/05 01:21:08;;;;;;;;;;;;;;;20.65;26.59;95019.13;10490439;28;1918;-51
2022/04/05 01:26:09;;;;;;;;;;;;;;;20.64;26.95;95022.81;10492621;28;1701;-53
2022/04/05 01:31:10;;;;;;;;;;;;;;;20.62;26.71;95025.75;10506447;28;1828;-54
2022/04/05 01:36:20;;;;;;;;;;;;;;;20.64;26.61;95044.66;10510357;28;1859;-53
2022/04/05 01:41:21;;;;;;;;;;;;;;;20.64;26.63;95028.06;10510095;28;1992;-56
2022/04/05 01:46:21;;;;;;;;;;;;;;;20.63;26.44;95039.69;10490527;28;1845;-52
2022/04/05 01:51:21;;;;;;;;;;;;;;;20.61;26.58;95024.16;10509923;28;1804;-53
2022/04/05 01:56:22;;;;;;;;;;;;;;;20.63;26.46;95027.28;10488860;28;1790;-56
2022/04/05 02:01:23;;;;;;;;;;;;;;;20.61;26.55;95018.16;10489943;28;2184;-55
2022/04/05 02:06:24;;;;;;;;;;;;;;;20.64;26.41;95010.44;10492300;28;1800;-53
2022/04/05 02:11:24;;;;;;;;;;;;;;;20.63;26.40;95005.47;10495293;28;1837;-57
2022/04/05 02:16:26;;;;;;;;;;;;;;;20.62;26.67;94994.16;10496155;28;1838;-56
2022/04/05 02:21:26;;;;;;;;;;;;;;;20.62;26.46;94978.34;10499625;28;1981;-56
2022/04/05 02:26:26;;;;;;;;;;;;;;;20.61;26.50;94976.00;10519005;28;1805;-57
2022/04/05 02:31:28;;;;;;;;;;;;;;;20.59;26.61;94960.47;10497302;28;1800;-54
2022/04/05 02:36:28;;;;;;;;;;;;;;;20.59;26.50;94973.66;10499156;28;1720;-54
2022/04/05 02:41:28;;;;;;;;;;;;;;;20.60;25.99;94967.31;10495876;28;1910;-56
2022/04/05 02:46:29;;;;;;;;;;;;;;;20.58;25.92;94961.56;10502488;28;1854;-52
2022/04/05 02:51:29;;;;;;;;;;;;;;;20.60;26.14;94959.44;10492909;28;1880;-55
2022/04/05 02:56:31;;;;;;;;;;;;;;;20.59;26.09;94957.84;10515238;28;1953;-56
2022/04/05 03:01:32;;;;;;;;;;;;;;;20.61;26.30;94958.34;10493413;28;1972;-52
2022/04/05 03:06:32;;;;;;;;;;;;;;;20.56;26.33;94944.50;10514654;28;1984;-55
2022/04/05 03:11:33;;;;;;;;;;;;;;;20.57;26.20;94954.72;10518354;28;2005;-56
2022/04/05 03:16:37;;;;;;;;;;;;;;;20.58;26.34;94944.97;10498881;28;1998;-57
2022/04/05 03:21:37;;;;;;;;;;;;;;;20.56;25.92;94933.97;10493327;28;1978;-51
2022/04/05 03:26:38;;;;;;;;;;;;;;;20.56;26.10;94947.13;10497381;28;1923;-53
2022/04/05 03:31:38;;;;;;;;;;;;;;;20.59;26.01;94944.69;10517268;28;1915;-56
2022/04/05 03:36:39;;;;;;;;;;;;;;;20.59;25.92;94952.59;10513531;28;1895;-56
2022/04/05 03:41:40;;;;;;;;;;;;;;;20.55;26.03;94919.22;10499895;28;1905;-55
2022/04/05 03:46:40;;;;;;;;;;;;;;;20.58;26.20;94919.44;10497776;28;1907;-51
2022/04/05 03:51:41;;;;;;;;;;;;;;;20.61;26.30;94925.97;10511578;28;2410;-53
2022/04/05 03:56:41;;;;;;;;;;;;;;;20.60;26.15;94927.03;10507991;28;1885;-57
2022/04/05 04:01:41;;;;;;;;;;;;;;;20.61;26.58;94925.97;10508970;28;2018;-56
2022/04/05 04:06:42;;;;;;;;;;;;;;;20.57;26.46;94923.13;10504598;28;1975;-56
2022/04/05 04:11:44;;;;;;;;;;;;;;;20.59;26.76;94910.47;10503689;28;2029;-56
2022/04/05 04:16:46;;;;;;;;;;;;;;;20.61;26.43;94897.78;10509581;28;1974;-54
2022/04/05 04:21:47;;;;;;;;;;;;;;;20.62;26.53;94898.56;10486793;28;1979;-53
2022/04/05 04:26:47;;;;;;;;;;;;;;;20.60;26.42;94914.66;10488479;28;2037;-56
2022/04/05 04:31:47;;;;;;;;;;;;;;;20.63;26.35;94921.97;10495982;28;1834;-52
2022/04/05 04:36:49;;;;;;;;;;;;;;;20.61;26.97;94913.56;10509221;28;1896;-51
2022/04/05 04:41:49;;;;;;;;;;;;;;;20.67;26.69;94906.38;10469873;28;1985;-55
2022/04/05 04:46:50;;;;;;;;;;;;;;;20.68;26.97;94913.97;10488591;28;1778;-52
2022/04/05 04:51:50;;;;;;;;;;;;;;;20.66;26.41;94920.59;10516979;28;1830;-56
2022/04/05 04:56:51;;;;;;;;;;;;;;;20.66;26.43;94908.22;10512936;28;1806;-53
2022/04/05 05:01:51;;;;;;;;;;;;;;;20.67;26.92;94916.91;10506947;28;1914;-53
2022/04/05 05:06:53;;;;;;;;;;;;;;;20.66;27.16;94924.03;10507948;28;1829;-51
2022/04/05 05:11:53;;;;;;;;;;;;;;;20.66;27.12;94921.38;10507365;28;1810;-54
2022/04/05 05:16:54;;;;;;;;;;;;;;;20.67;27.03;94924.81;10489940;28;1905;-49
2022/04/05 05:21:54;;;;;;;;;;;;;;;20.71;27.15;94941.59;10490493;28;2229;-52
2022/04/05 05:26:55;;;;;;;;;;;;;;;20.71;27.20;94933.69;10496742;28;1940;-51
2022/04/05 05:31:55;;;;;;;;;;;;;;;20.70;27.32;94940.78;10493540;28;1836;-55
2022/04/05 05:36:55;;;;;;;;;;;;;;;20.69;26.79;94939.22;10489089;28;1884;-51
2022/04/05 05:41:56;;;;;;;;;;;;;;;20.69;26.87;94938.47;10491790;28;1969;-50
2022/04/05 05:46:56;;;;;;;;;;;;;;;20.66;27.17;94955.63;10489671;28;1896;-52
2022/04/05 05:51:57;;;;;;;;;;;;;;;20.65;26.96;94951.41;10491581;28;1861;-55
2022/04/05 05:56:57;;;;;;;;;;;;;;;20.62;27.31;94952.00;10493088;28;2063;-52
2022/04/05 06:01:57;;;;;;;;;;;;;;;20.63;27.37;94969.34;10511881;28;1910;-55
2022/04/05 06:06:58;;;;;;;;;;;;;;;20.66;27.73;94974.06;10496490;28;2014;-50
2022/04/05 06:11:58;;;;;;;;;;;;;;;20.67;27.32;94991.41;10477699;28;1810;-52
2022/04/05 06:16:58;;;;;;;;;;;;;;;20.63;27.29;94990.44;10481908;28;2033;-52
2022/04/05 06:21:59;;;;;;;;;;;;;;;20.61;27.48;94997.84;10502362;28;1925;-51
2022/04/05 06:26:59;;;;;;;;;;;;;;;20.58;27.29;94998.44;10485861;28;1967;-56
2022/04/05 06:32:00;;;;;;;;;;;;;;;20.55;27.16;95004.25;10488664;28;1790;-53
2022/04/05 06:37:00;;;;;;;;;;;;;;;20.57;27.50;94996.06;10491268;28;1837;-54
2022/04/05 06:42:00;;;;;;;;;;;;;;;20.55;26.96;94992.94;10502647;28;2018;-52
2022/04/05 06:47:01;;;;;;;;;;;;;;;20.54;27.51;94992.19;10500172;28;1872;-56
2022/04/05 06:52:01;;;;;;;;;;;;;;;20.52;27.10;94999.59;10503147;28;1319;-51
2022/04/05 06:57:01;;;;;;;;;;;;;;;20.50;26.81;94993.06;10520814;28;1844;-56
2022/04/05 07:02:02;;;;;;;;;;;;;;;20.47;27.05;94986.50;10510922;28;2021;-54
2022/04/05 07:07:02;;;;;;;;;;;;;;;20.49;26.97;94976.47;10516983;28;2042;-56
2022/04/05 07:12:03;;;;;;;;;;;;;;;20.51;27.02;94990.13;10516464;28;1805;-49
2022/04/05 07:17:03;;;;;;;;;;;;;;;20.48;26.66;94976.78;10516254;28;1841;-54
2022/04/05 07:22:03;;;;;;;;;;;;;;;20.49;26.95;95000.16;10510872;28;2006;-50
2022/04/05 07:27:04;;;;;;;;;;;;;;;20.49;26.69;94989.63;10493101;28;1916;-55
2022/04/05 07:32:04;;;;;;;;;;;;;;;20.47;26.47;94988.34;10493049;28;1939;-52
2022/04/05 07:37:06;;;;;;;;;;;;;;;20.47;26.28;94988.34;10510160;28;1840;-53
2022/04/05 07:42:06;;;;;;;;;;;;;;;20.43;25.65;94979.47;10496339;28;1913;-51
2022/04/05 07:47:07;;;;;;;;;;;;;;;20.49;26.70;94979.09;10510167;28;1844;-54
2022/04/05 07:52:07;;;;;;;;;;;;;;;20.46;26.47;94982.34;10508456;28;1797;-52
2022/04/05 07:57:10;;;;;;;;;;;;;;;20.48;25.86;94982.03;10514354;28;1833;-52
2022/04/05 08:02:10;;;;;;;;;;;;;;;20.47;25.96;94981.25;10516483;28;1914;-52
2022/04/05 08:07:10;;;;;;;;;;;;;;;20.49;26.23;94987.00;10515431;28;2003;-53
2022/04/05 08:12:11;;;;;;;;;;;;;;;20.48;26.25;94990.72;10509970;28;1802;-53
2022/04/05 08:17:11;;;;;;;;;;;;;;;20.37;25.55;94997.22;10511502;28;1895;-50
2022/04/05 08:22:11;;;;;;;;;;;;;;;20.43;25.48;94995.28;10510540;28;2010;-52
2022/04/05 08:27:12;;;;;;;;;;;;;;;20.44;24.81;95002.91;10508958;28;1853;-54
2022/04/05 08:32:12;;;;;;;;;;;;;;;20.45;25.28;95006.28;10507257;28;1826;-54
2022/04/05 08:37:13;;;;;;;;;;;;;;;20.43;24.94;95001.31;10510595;28;1871;-52
2022/04/05 08:42:14;;;;;;;;;;;;;;;20.47;25.60;95002.31;10491392;28;1909;-52
2022/04/05 08:47:16;;;;;;;;;;;;;;;20.50;25.85;95012.28;10480162;28;1710;-53
2022/04/05 08:52:16;;;;;;;;;;;;;;;20.53;26.25;95016.94;10477519;28;1854;-53
2022/04/05 08:57:17;;;;;;;;;;;;;;;20.58;26.12;95024.75;10497643;28;1864;-55
2022/04/05 09:02:24;;;;;;;;;;;;;;;20.60;26.92;95022.63;10487591;28;1968;-56
2022/04/05 09:07:25;;;;;;;;;;;;;;;20.62;26.77;95028.38;10508394;28;1837;-54
2022/04/05 09:12:28;;;;;;;;;;;;;;;20.61;26.70;95026.81;10504063;28;1862;-53
2022/04/05 09:28:46;;;;;;;;;;;;;;;20.61;26.83;95024.16;10490512;28;1825;-54
2022/04/05 09:34:02;;;;;;;;;;;;;;;20.62;27.11;95036.28;10492063;28;1792;-52
2022/04/05 09:39:28;;;;;;;;;;;;;;;20.61;26.56;95039.97;10490345;28;1809;-58
2022/04/05 09:44:30;;;;;;;;;;;;;;;20.61;26.57;95037.34;10472380;28;1932;-53
2022/04/05 09:49:32;;;;;;;;;;;;;;;20.63;26.75;95032.56;10507743;28;1962;-55
2022/04/05 09:54:34;;;;;;;;;;;;;;;20.62;26.95;95038.13;10505473;28;1929;-53
2022/04/05 09:59:41;;;;;;;;;;;;;;;20.63;26.64;95042.31;10490094;28;1849;-53
2022/04/05 10:04:59;;;;;;;;;;;;;;;20.63;26.38;95043.09;10512113;28;1906;-53
2022/04/05 10:10:00;;;;;;;;;;;;;;;20.63;26.88;95037.81;10481523;28;1750;-54
2022/04/05 10:15:00;;;;;;;;;;;;;;;20.63;27.06;95042.31;10507872;28;1824;-52
2022/04/05 10:20:00;;;;;;;;;;;;;;;20.64;26.91;95046.50;10506622;28;1776;-55
2022/04/05 10:25:01;;;;;;;;;;;;;;;20.62;26.92;95046.81;10486870;28;1910;-50
2022/04/05 10:30:10;;;;;;;;;;;;;;;20.62;26.98;95046.03;10498872;28;1833;-52
2022/04/05 10:35:11;;;;;;;;;;;;;;;20.62;27.11;95046.81;10499565;28;1533;-54
2022/04/05 10:40:12;;;;;;;;;;;;;;;20.64;26.98;95039.41;10496097;28;1859;-55
2022/04/05 10:45:12;;;;;;;;;;;;;;;20.64;27.31;95042.03;10494336;28;1983;-52
2022/04/05 10:56:03;;;;;;;;;;;;;;;20.66;27.11;95036.47;10503736;28;2247;-52
2022/04/05 11:01:12;;;;;;;;;;;;;;;20.64;26.91;95041.25;10492436;28;1904;-52
2022/04/05 11:06:13;;;;;;;;;;;;;;;20.60;27.62;95035.78;10513498;28;1903;-55
2022/04/05 11:11:14;;;;;;;;;;;;;;;20.65;28.93;95035.69;10516883;28;1902;-52
2022/04/05 11:16:14;;;;;;;;;;;;;;;20.72;30.07;95041.34;10494764;28;1924;-51
2022/04/05 11:21:15;;;;;;;;;;;;;;;20.76;30.43;95037.06;10483736;28;2007;-54
2022/04/05 11:26:24;;;;;;;;;;;;;;;20.75;29.88;95032.84;10506757;28;1861;-51
2022/04/05 11:31:28;;;;;;;;;;;;;;;20.72;30.12;95028.19;10516203;28;1975;-54
2022/04/05 11:36:29;;;;;;;;;;;;;;;20.71;30.28;95025.84;10508127;28;2034;-56
2022/04/05 11:41:30;;;;;;;;;;;;;;;20.71;30.01;95020.59;10492916;28;1906;-51
2022/04/05 11:46:31;;;;;;;;;;;;;;;20.68;30.21;95029.84;10512264;28;2011;-52
2022/04/05 11:51:35;;;;;;;;;;;;;;;20.64;30.09;95031.50;10513149;28;1880;-52
2022/04/05 11:56:36;;;;;;;;;;;;;;;20.63;30.02;95034.44;10509551;28;2030;-52
2022/04/05 12:01:39;;;;;;;;;;;;;;;20.61;29.60;95036.56;10506599;28;1906;-49
2022/04/05 12:06:40;;;;;;;;;;;;;;;20.58;29.76;95035.28;10492205;28;1855;-51
2022/04/05 12:11:41;;;;;;;;;;;;;;;20.56;29.78;95026.91;10510076;28;1910;-55
2022/04/05 12:16:43;;;;;;;;;;;;;;;20.57;29.48;95033.72;10503414;28;1971;-56
2022/04/05 12:21:43;;;;;;;;;;;;;;;20.58;29.31;95027.41;10510828;28;2062;-54
2022/04/05 12:26:44;;;;;;;;;;;;;;;20.57;29.45;95022.41;10512276;28;2034;-50
2022/04/05 12:31:44;;;;;;;;;;;;;;;20.58;28.97;95023.97;10492281;28;1894;-55
2022/04/05 12:36:54;;;;;;;;;;;;;;;20.58;28.95;95022.13;10489733;28;1915;-54
2022/04/05 12:41:57;;;;;;;;;;;;;;;20.59;29.13;95020.25;10491166;28;1981;-52
2022/04/05 12:47:00;;;;;;;;;;;;;;;20.61;28.89;95012.88;10497496;28;1966;-52
2022/04/05 12:52:08;;;;;;;;;;;;;;;20.57;28.95;95001.34;10506727;28;1865;-54
2022/04/05 12:57:12;;;;;;;;;;;;;;;20.57;28.56;95004.75;10479844;28;1833;-54
2022/04/05 13:02:19;;;;;;;;;;;;;;;20.59;28.41;94993.94;10499268;28;1968;-52
2022/04/05 13:07:20;;;;;;;;;;;;;;;20.57;28.30;95001.34;10493218;28;1849;-54
2022/04/05 13:12:21;;;;;;;;;;;;;;;20.59;28.50;94991.28;10477964;28;2024;-55
2022/04/05 13:17:22;;;;;;;;;;;;;;;20.57;28.58;94991.59;10506921;28;1853;-55
2022/04/05 13:22:22;;;;;;;;;;;;;;;20.60;28.25;94985.75;10477130;28;2793;-54
2022/04/05 13:27:23;;;;;;;;;;;;;;;20.58;28.40;94993.16;10491930;28;1832;-51
2022/04/05 13:32:23;;;;;;;;;;;;;;;20.56;28.58;94990.03;10487893;28;1873;-51
2022/04/05 13:37:24;;;;;;;;;;;;;;;20.59;28.34;94991.28;10496872;28;2025;-50
2022/04/05 13:42:24;;;;;;;;;;;;;;;20.59;28.39;94988.66;10485819;28;1912;-52
2022/04/05 13:47:25;;;;;;;;;;;;;;;20.59;28.49;94981.53;10497202;28;1911;-52
2022/04/05 13:52:25;;;;;;;;;;;;;;;20.58;28.26;94989.75;10504260;28;1798;-55
2022/04/05 13:57:25;;;;;;;;;;;;;;;20.58;28.49;94980.00;10490221;28;1836;-51
2022/04/05 14:02:26;;;;;;;;;;;;;;;20.58;28.42;94977.38;10477923;28;1905;-50
2022/04/05 14:07:27;;;;;;;;;;;;;;;20.60;27.96;94980.50;10491358;28;1861;-53
2022/04/05 14:12:27;;;;;;;;;;;;;;;20.61;28.05;94971.50;10486402;28;1817;-53
2022/04/05 14:17:28;;;;;;;;;;;;;;;20.65;28.03;94966.44;10482078;28;2001;-52
2022/04/05 14:22:28;;;;;;;;;;;;;;;20.66;28.11;94954.84;10486094;28;1994;-53
2022/04/05 14:27:29;;;;;;;;;;;;;;;20.64;28.24;94965.66;10506528;28;1951;-50
2022/04/05 14:32:29;;;;;;;;;;;;;;;20.65;28.28;94956.69;10483307;28;1812;-53
2022/04/05 14:37:29;;;;;;;;;;;;;;;20.67;28.21;94951.13;10484060;28;1962;-54
2022/04/05 14:42:30;;;;;;;;;;;;;;;20.72;28.14;94961.56;10508467;28;1938;-51
2022/04/05 14:47:30;;;;;;;;;;;;;;;20.73;28.27;94961.25;10485469;28;1944;-52
2022/04/05 14:52:30;;;;;;;;;;;;;;;20.76;28.60;94958.06;10509859;28;1864;-50
2022/04/05 14:57:31;;;;;;;;;;;;;;;20.74;28.54;94949.66;10499413;28;2052;-51
2022/04/05 15:02:31;;;;;;;;;;;;;;;20.78;28.54;94957.75;10509037;28;1964;-50
2022/04/05 15:07:32;;;;;;;;;;;;;;;20.73;28.67;94961.25;10488077;28;2135;-51
2022/04/05 15:12:32;;;;;;;;;;;;;;;20.73;28.57;94953.34;10501974;28;2092;-53
2022/04/05 15:17:33;;;;;;;;;;;;;;;20.72;28.65;94951.81;10491549;28;1829;-50
2022/04/05 15:22:33;;;;;;;;;;;;;;;20.74;28.77;94960.19;10514998;28;1967;-52
2022/04/05 15:27:33;;;;;;;;;;;;;;;20.69;28.71;94957.66;10493089;28;1841;-51
2022/04/05 15:32:34;;;;;;;;;;;;;;;20.63;28.95;94953.56;10494623;28;1793;-51
2022/04/05 15:37:34;;;;;;;;;;;;;;;20.61;28.90;94960.97;10495531;28;1798;-52
2022/04/05 15:42:34;;;;;;;;;;;;;;;20.56;29.14;94963.72;10498795;28;2077;-52
2022/04/05 15:47:35;;;;;;;;;;;;;;;20.55;29.06;94959.50;10486734;28;1875;-53
2022/04/05 15:52:35;;;;;;;;;;;;;;;20.57;28.92;94962.63;10492541;28;1813;-53
2022/04/05 15:57:38;;;;;;;;;;;;;;;20.52;29.04;94957.47;10493486;28;1979;-52
2022/04/05 16:02:38;;;;;;;;;;;;;;;20.52;29.21;94954.06;10489464;28;1984;-52
2022/04/05 16:07:39;;;;;;;;;;;;;;;20.50;29.22;94959.63;10493921;28;1868;-56
2022/04/05 16:12:39;;;;;;;;;;;;;;;20.50;29.16;94969.34;10487899;28;1697;-56
2022/04/05 16:17:40;;;;;;;;;;;;;;;20.51;29.61;94976.16;10490219;28;1848;-52
2022/04/05 16:22:40;;;;;;;;;;;;;;;20.53;29.48;94964.28;10502658;28;1905;-55
2022/04/05 16:27:40;;;;;;;;;;;;;;;20.52;29.37;94968.00;10514865;28;1822;-55
2022/04/05 16:32:41;;;;;;;;;;;;;;;20.52;29.40;94960.09;10508312;28;1748;-51
2022/04/05 16:37:42;;;;;;;;;;;;;;;20.50;29.54;94964.88;10514766;28;1778;-54
2022/04/05 16:42:42;;;;;;;;;;;;;;;20.52;29.49;94970.63;10514310;28;1967;-55
2022/04/05 16:47:42;;;;;;;;;;;;;;;20.53;29.50;94968.75;10493286;28;1826;-51
2022/04/05 16:52:43;;;;;;;;;;;;;;;20.52;29.53;94975.13;10507716;28;1807;-55
2022/04/05 16:57:43;;;;;;;;;;;;;;;20.54;29.14;94970.34;10491754;28;1788;-53
2022/04/05 17:02:44;;;;;;;;;;;;;;;20.56;29.24;94978.72;10495292;28;1965;-54
2022/04/05 17:07:44;;;;;;;;;;;;;;;20.52;29.36;94980.38;10506000;28;1891;-52
2022/04/05 17:12:44;;;;;;;;;;;;;;;20.53;29.32;94974.81;10489942;28;1848;-54
2022/04/05 17:17:45;;;;;;;;;;;;;;;20.54;29.53;94975.59;10490796;28;1984;-56
2022/04/05 17:22:46;;;;;;;;;;;;;;;20.52;29.60;94978.53;10486010;28;1967;-54
2022/04/05 17:27:47;;;;;;;;;;;;;;;20.55;29.54;94980.56;10491755;28;2098;-53
2022/04/05 17:32:47;;;;;;;;;;;;;;;20.58;29.80;94984.47;10469258;28;1828;-56
2022/04/05 17:37:51;;;;;;;;;;;;;;;20.53;29.79;94987.97;10506991;28;1828;-54
2022/04/05 17:42:51;;;;;;;;;;;;;;;20.54;29.77;94981.66;10510851;28;1921;-52
2022/04/05 17:47:52;;;;;;;;;;;;;;;20.54;29.61;94989.56;10510003;28;1967;-54
2022/04/05 17:52:53;;;;;;;;;;;;;;;20.55;29.64;94985.84;10489865;28;1844;-55
2022/04/05 17:57:53;;;;;;;;;;;;;;;20.55;29.64;94983.19;10495942;28;1828;-56
2022/04/05 18:02:54;;;;;;;;;;;;;;;20.54;29.67;94989.56;10493896;28;1909;-54
2022/04/05 18:07:54;;;;;;;;;;;;;;;20.53;29.64;94989.81;10480913;28;1837;-56
2022/04/05 18:12:58;;;;;;;;;;;;;;;20.53;29.61;94984.56;10468744;28;2051;-54
2022/04/05 18:17:59;;;;;;;;;;;;;;;20.54;29.35;94996.66;10487223;28;1850;-54
2022/04/05 18:22:59;;;;;;;;;;;;;;;20.53;29.44;94995.88;10489384;28;2197;-52
2022/04/05 18:28:00;;;;;;;;;;;;;;;20.52;29.54;95004.88;10484405;28;2251;-50
2022/04/05 18:33:00;;;;;;;;;;;;;;;20.53;29.39;95006.41;10505310;28;2145;-52
2022/04/05 18:38:01;;;;;;;;;;;;;;;20.53;29.51;95010.88;10505663;28;1865;-51
2022/04/05 18:43:01;;;;;;;;;;;;;;;20.55;29.35;95016.66;10505747;28;1973;-53
2022/04/05 18:48:03;;;;;;;;;;;;;;;20.55;29.39;95019.28;10504754;28;1859;-52
2022/04/05 18:53:03;;;;;;;;;;;;;;;20.55;29.38;95024.53;10497179;28;1737;-53
2022/04/05 18:58:06;;;;;;;;;;;;;;;20.54;29.40;95031.69;10497690;28;1951;-51
2022/04/05 19:03:07;;;;;;;;;;;;;;;20.54;29.20;95026.41;10493053;28;1909;-53
2022/04/05 19:08:07;;;;;;;;;;;;;;;20.54;29.25;95036.94;10497580;28;1788;-56
2022/04/05 19:13:12;;;;;;;;;;;;;;;20.52;29.26;95041.72;10490548;28;1816;-54
2022/04/05 19:18:12;;;;;;;;;;;;;;;20.55;29.32;95050.88;10511953;28;1959;-53
2022/04/05 19:23:13;;;;;;;;;;;;;;;20.58;29.24;95047.66;10513890;28;1967;-52
2022/04/05 19:28:13;;;;;;;;;;;;;;;20.57;29.20;95049.53;10508398;28;1873;-50
2022/04/05 19:33:13;;;;;;;;;;;;;;;20.51;29.41;95045.41;10511165;28;1821;-51
2022/04/05 19:38:14;;;;;;;;;;;;;;;20.55;29.11;95043.75;10498610;28;1885;-49
2022/04/05 19:43:14;;;;;;;;;;;;;;;20.58;28.97;95034.50;10491835;28;2027;-53
2022/04/05 19:48:14;;;;;;;;;;;;;;;20.54;30.33;95038.78;10493877;28;1904;-54
2022/04/05 19:53:15;;;;;;;;;;;;;;;20.59;30.25;95039.47;10490901;28;1508;-54
2022/04/05 19:58:15;;;;;;;;;;;;;;;20.63;30.08;95042.31;10491788;28;1880;-52
2022/04/05 20:03:15;;;;;;;;;;;;;;;20.62;30.28;95040.75;10483767;28;1963;-49
2022/04/05 20:08:16;;;;;;;;;;;;;;;20.61;30.05;95050.50;10476689;28;1842;-51
2022/04/05 20:13:17;;;;;;;;;;;;;;;20.59;30.25;95052.63;10485929;28;1781;-50
2022/04/05 20:23:39;;;;;;;;;;;;;;;20.60;31.20;95053.44;10490132;28;1906;-51
2022/04/05 20:28:40;;;;;;;;;;;;;;;20.64;31.34;95052.56;10503231;28;1875;-54
2022/04/05 20:33:41;;;;;;;;;;;;;;;20.63;31.31;95053.63;10511785;28;1911;-52
2022/04/05 20:38:43;;;;;;;;;;;;;;;20.62;31.22;95046.81;10515897;28;1974;-50
2022/04/05 20:43:44;;;;;;;;;;;;;;;20.65;31.16;95040.94;10509775;28;1959;-54
2022/04/05 20:48:44;;;;;;;;;;;;;;;20.63;31.22;95044.97;10511113;28;1967;-56
2022/04/05 20:53:45;;;;;;;;;;;;;;;20.59;31.10;95043.94;10507658;28;1806;-51
2022/04/05 20:58:45;;;;;;;;;;;;;;;20.54;30.85;95038.78;10501593;28;1813;-54
2022/04/05 21:03:46;;;;;;;;;;;;;;;20.55;30.49;95035.88;10494942;28;1898;-50
2022/04/05 21:08:46;;;;;;;;;;;;;;;20.52;30.50;95036.47;10487383;28;2047;-53
2022/04/05 21:13:46;;;;;;;;;;;;;;;20.47;30.58;95036.53;10485303;28;1762;-50
2022/04/05 21:18:48;;;;;;;;;;;;;;;20.44;30.41;95045.03;10491631;28;1911;-54
2022/04/05 21:23:49;;;;;;;;;;;;;;;20.41;30.12;95034.28;10486083;28;1910;-53
2022/04/05 21:34:09;;;;;;;;;;;;;;;20.37;29.90;95038.53;10472937;28;1920;-53
2022/04/05 21:39:09;;;;;;;;;;;;;;;20.34;31.77;95033.88;10488895;28;1816;-50
2022/04/05 21:44:09;;;;;;;;;;;;;;;20.34;33.00;95029.38;10492001;28;1894;-50
2022/04/05 21:49:09;;;;;;;;;;;;;;;20.33;33.06;95029.66;10509596;28;1863;-50
2022/04/05 21:54:10;;;;;;;;;;;;;;;20.37;32.61;95020.13;10487289;28;1825;-53
2022/04/05 21:59:10;;;;;;;;;;;;;;;20.35;32.82;95025.69;10509563;28;1850;-55
2022/04/05 22:04:12;;;;;;;;;;;;;;;20.34;32.83;95024.09;10505762;28;1898;-54
2022/04/05 22:09:12;;;;;;;;;;;;;;;20.34;32.70;95021.47;10506333;28;1892;-56
2022/04/05 22:14:12;;;;;;;;;;;;;;;20.34;32.83;95029.38;10507769;28;1867;-55
2022/04/05 22:19:13;;;;;;;;;;;;;;;20.37;32.64;95023.53;10485093;28;1813;-53
2022/04/05 22:24:13;;;;;;;;;;;;;;;20.39;32.65;95021.41;10485674;28;1968;-54
2022/04/05 22:29:13;;;;;;;;;;;;;;;20.37;32.61;95018.28;10511672;28;1978;-54
2022/04/05 22:34:14;;;;;;;;;;;;;;;20.40;32.45;95022.19;10518051;28;2022;-51
2022/04/05 22:39:14;;;;;;;;;;;;;;;20.39;32.79;95031.94;10474033;28;1892;-52
2022/04/05 22:44:15;;;;;;;;;;;;;;;20.41;32.55;95029.78;10492495;28;1967;-53
2022/04/05 22:49:15;;;;;;;;;;;;;;;20.43;32.44;95030.28;10500316;28;1959;-55
2022/04/05 22:54:16;;;;;;;;;;;;;;;20.47;32.38;95033.91;10496041;28;1837;-57
2022/04/05 22:59:17;;;;;;;;;;;;;;;20.48;32.25;95027.56;10494832;28;1941;-53
2022/04/05 23:04:17;;;;;;;;;;;;;;;20.46;32.35;95026.31;10495040;28;1906;-50
2022/04/05 23:09:17;;;;;;;;;;;;;;;20.47;32.38;95025.22;10499544;28;1837;-54
2022/04/05 23:14:18;;;;;;;;;;;;;;;20.51;32.17;95024.34;10516426;28;1902;-55
2022/04/05 23:19:18;;;;;;;;;;;;;;;20.52;32.23;95023.28;10479954;28;1825;-55
2022/04/05 23:24:18;;;;;;;;;;;;;;;20.49;32.39;95028.34;10475641;28;1975;-54
2022/04/05 23:29:19;;;;;;;;;;;;;;;20.54;32.17;95012.47;10497656;28;1790;-55
2022/04/05 23:34:19;;;;;;;;;;;;;;;20.55;32.01;95014.00;10475148;28;1861;-52
2022/04/05 23:39:20;;;;;;;;;;;;;;;20.57;32.03;95014.50;10493806;28;2005;-54
2022/04/05 23:44:20;;;;;;;;;;;;;;;20.60;31.78;95021.84;10472441;28;1910;-53
2022/04/05 23:49:21;;;;;;;;;;;;;;;20.56;32.11;95000.56;10513004;28;2113;-53
2022/04/05 23:54:21;;;;;;;;;;;;;;;20.60;31.85;95009.44;10512593;28;1797;-52
2022/04/05 23:59:22;;;;;;;;;;;;;;;20.55;31.97;94999.00;10510455;28;1836;-57
